sensor_id;sensor_type;location;lat;lon;timestamp;P1;durP1;ratioP1;P2;durP2;ratioP2
5058;SDS011;2548;52.050;11.036;2023-01-30T00:01:05;16.35;;;12.00;;
5058;SDS011;2548;52.050;11.036;2023-01-30T00:03:35;17.02;;;10.95;;
5058;SDS011;2548;52.050;11.036;2023-01-30T00:06:02;14.52;;;11.00;;
5058;SDS011;2548;52.050;11.036;2023-01-30T00:08:30;15.40;;;11.70;;
5058;SDS011;2548;52.050;11.036;2023-01-30T00:10:57;17.67;;;11.80;;
5058;SDS011;2548;52.050;11.036;2023-01-30T00:13:30;21.90;;;12.55;;
5058;SDS011;2548;52.050;11.036;2023-01-30T00:15:58;14.93;;;11.40;;
5058;SDS011;2548;52.050;11.036;2023-01-30T00:18:25;16.45;;;11.57;;
5058;SDS011;2548;52.050;11.036;2023-01-30T00:20:57;17.30;;;11.07;;
5058;SDS011;2548;52.050;11.036;2023-01-30T00:23:26;17.73;;;12.00;;
5058;SDS011;2548;52.050;11.036;2023-01-30T00:25:55;19.25;;;11.52;;
5058;SDS011;2548;52.050;11.036;2023-01-30T00:28:22;18.13;;;11.60;;
5058;SDS011;2548;52.050;11.036;2023-01-30T00:30:51;13.43;;;9.82;;
5058;SDS011;2548;52.050;11.036;2023-01-30T00:33:22;19.63;;;12.07;;
5058;SDS011;2548;52.050;11.036;2023-01-30T00:35:52;18.90;;;12.02;;
5058;SDS011;2548;52.050;11.036;2023-01-30T00:38:22;19.73;;;11.77;;
5058;SDS011;2548;52.050;11.036;2023-01-30T00:40:49;19.35;;;11.82;;
5058;SDS011;2548;52.050;11.036;2023-01-30T00:43:18;25.15;;;13.95;;
5058;SDS011;2548;52.050;11.036;2023-01-30T00:46:04;14.95;;;10.43;;
5058;SDS011;2548;52.050;11.036;2023-01-30T00:48:53;18.35;;;12.90;;
5058;SDS011;2548;52.050;11.036;2023-01-30T00:51:20;15.60;;;10.95;;
5058;SDS011;2548;52.050;11.036;2023-01-30T00:53:49;15.45;;;12.50;;
5058;SDS011;2548;52.050;11.036;2023-01-30T00:56:17;16.10;;;11.65;;
5058;SDS011;2548;52.050;11.036;2023-01-30T00:58:44;20.55;;;13.45;;
5058;SDS011;2548;52.050;11.036;2023-01-30T01:01:11;22.17;;;12.95;;
5058;SDS011;2548;52.050;11.036;2023-01-30T01:03:39;21.65;;;13.50;;
5058;SDS011;2548;52.050;11.036;2023-01-30T01:06:06;20.92;;;12.85;;
5058;SDS011;2548;52.050;11.036;2023-01-30T01:08:34;17.42;;;12.60;;
5058;SDS011;2548;52.050;11.036;2023-01-30T01:11:03;18.40;;;12.48;;
5058;SDS011;2548;52.050;11.036;2023-01-30T01:13:30;21.05;;;11.80;;
5058;SDS011;2548;52.050;11.036;2023-01-30T01:15:58;19.75;;;12.77;;
5058;SDS011;2548;52.050;11.036;2023-01-30T01:18:25;13.82;;;11.27;;
5058;SDS011;2548;52.050;11.036;2023-01-30T01:20:53;20.23;;;13.57;;
5058;SDS011;2548;52.050;11.036;2023-01-30T01:23:21;18.85;;;12.75;;
5058;SDS011;2548;52.050;11.036;2023-01-30T01:25:49;16.98;;;11.68;;
5058;SDS011;2548;52.050;11.036;2023-01-30T01:28:17;15.82;;;11.20;;
5058;SDS011;2548;52.050;11.036;2023-01-30T01:30:46;21.10;;;11.48;;
5058;SDS011;2548;52.050;11.036;2023-01-30T01:33:14;14.43;;;10.68;;
5058;SDS011;2548;52.050;11.036;2023-01-30T01:35:42;16.10;;;10.88;;
5058;SDS011;2548;52.050;11.036;2023-01-30T01:38:09;17.17;;;11.00;;
5058;SDS011;2548;52.050;11.036;2023-01-30T01:40:38;16.33;;;11.48;;
5058;SDS011;2548;52.050;11.036;2023-01-30T01:43:34;20.88;;;12.50;;
5058;SDS011;2548;52.050;11.036;2023-01-30T01:46:04;17.02;;;11.65;;
5058;SDS011;2548;52.050;11.036;2023-01-30T01:48:36;18.77;;;12.25;;
5058;SDS011;2548;52.050;11.036;2023-01-30T01:51:08;16.45;;;10.70;;
5058;SDS011;2548;52.050;11.036;2023-01-30T01:53:40;14.10;;;10.98;;
5058;SDS011;2548;52.050;11.036;2023-01-30T01:56:13;19.40;;;12.10;;
5058;SDS011;2548;52.050;11.036;2023-01-30T01:58:46;22.83;;;12.02;;
5058;SDS011;2548;52.050;11.036;2023-01-30T02:01:18;19.98;;;12.82;;
5058;SDS011;2548;52.050;11.036;2023-01-30T02:03:47;16.10;;;11.50;;
5058;SDS011;2548;52.050;11.036;2023-01-30T02:06:18;21.08;;;12.50;;
5058;SDS011;2548;52.050;11.036;2023-01-30T02:08:49;17.73;;;12.68;;
5058;SDS011;2548;52.050;11.036;2023-01-30T02:11:20;14.10;;;11.48;;
5058;SDS011;2548;52.050;11.036;2023-01-30T02:13:53;17.20;;;12.35;;
5058;SDS011;2548;52.050;11.036;2023-01-30T02:16:22;17.23;;;12.63;;
5058;SDS011;2548;52.050;11.036;2023-01-30T02:18:50;18.90;;;12.43;;
5058;SDS011;2548;52.050;11.036;2023-01-30T02:21:23;17.63;;;13.35;;
5058;SDS011;2548;52.050;11.036;2023-01-30T02:24:12;16.90;;;12.15;;
5058;SDS011;2548;52.050;11.036;2023-01-30T02:27:05;18.40;;;12.20;;
5058;SDS011;2548;52.050;11.036;2023-01-30T02:29:54;21.77;;;12.88;;
5058;SDS011;2548;52.050;11.036;2023-01-30T02:32:46;18.55;;;12.50;;
5058;SDS011;2548;52.050;11.036;2023-01-30T02:35:25;17.98;;;11.50;;
5058;SDS011;2548;52.050;11.036;2023-01-30T02:38:03;16.70;;;11.13;;
5058;SDS011;2548;52.050;11.036;2023-01-30T02:40:46;18.70;;;11.93;;
5058;SDS011;2548;52.050;11.036;2023-01-30T02:43:23;19.45;;;12.80;;
5058;SDS011;2548;52.050;11.036;2023-01-30T02:45:59;18.08;;;11.63;;
5058;SDS011;2548;52.050;11.036;2023-01-30T02:48:31;16.20;;;11.25;;
5058;SDS011;2548;52.050;11.036;2023-01-30T02:51:04;14.98;;;11.40;;
5058;SDS011;2548;52.050;11.036;2023-01-30T02:53:35;14.75;;;11.27;;
5058;SDS011;2548;52.050;11.036;2023-01-30T02:56:04;17.20;;;12.07;;
5058;SDS011;2548;52.050;11.036;2023-01-30T02:58:33;19.27;;;12.75;;
5058;SDS011;2548;52.050;11.036;2023-01-30T03:01:15;20.63;;;12.63;;
5058;SDS011;2548;52.050;11.036;2023-01-30T03:04:00;17.88;;;12.65;;
5058;SDS011;2548;52.050;11.036;2023-01-30T03:06:52;16.75;;;11.77;;
5058;SDS011;2548;52.050;11.036;2023-01-30T03:09:35;17.65;;;12.25;;
5058;SDS011;2548;52.050;11.036;2023-01-30T03:12:10;11.70;;;9.10;;
5058;SDS011;2548;52.050;11.036;2023-01-30T03:14:45;13.90;;;10.18;;
5058;SDS011;2548;52.050;11.036;2023-01-30T03:17:16;15.75;;;10.10;;
5058;SDS011;2548;52.050;11.036;2023-01-30T03:19:47;15.77;;;11.05;;
5058;SDS011;2548;52.050;11.036;2023-01-30T03:22:15;17.55;;;11.18;;
5058;SDS011;2548;52.050;11.036;2023-01-30T03:24:43;13.70;;;10.75;;
5058;SDS011;2548;52.050;11.036;2023-01-30T03:27:11;17.08;;;10.30;;
5058;SDS011;2548;52.050;11.036;2023-01-30T03:29:39;10.70;;;9.02;;
5058;SDS011;2548;52.050;11.036;2023-01-30T03:32:06;12.27;;;8.73;;
5058;SDS011;2548;52.050;11.036;2023-01-30T03:34:34;11.65;;;9.10;;
5058;SDS011;2548;52.050;11.036;2023-01-30T03:37:03;11.23;;;7.82;;
5058;SDS011;2548;52.050;11.036;2023-01-30T03:39:34;12.25;;;8.40;;
5058;SDS011;2548;52.050;11.036;2023-01-30T03:42:02;9.23;;;7.47;;
5058;SDS011;2548;52.050;11.036;2023-01-30T03:44:29;10.60;;;8.15;;
5058;SDS011;2548;52.050;11.036;2023-01-30T03:46:57;8.73;;;7.60;;
5058;SDS011;2548;52.050;11.036;2023-01-30T03:49:25;12.05;;;8.55;;
5058;SDS011;2548;52.050;11.036;2023-01-30T03:51:53;12.38;;;8.55;;
5058;SDS011;2548;52.050;11.036;2023-01-30T03:54:22;9.40;;;7.63;;
5058;SDS011;2548;52.050;11.036;2023-01-30T03:56:49;11.63;;;8.32;;
5058;SDS011;2548;52.050;11.036;2023-01-30T03:59:17;9.75;;;8.00;;
5058;SDS011;2548;52.050;11.036;2023-01-30T04:01:51;10.30;;;7.95;;
5058;SDS011;2548;52.050;11.036;2023-01-30T04:04:19;8.13;;;7.30;;
5058;SDS011;2548;52.050;11.036;2023-01-30T04:06:47;11.10;;;8.70;;
5058;SDS011;2548;52.050;11.036;2023-01-30T04:09:14;12.68;;;9.27;;
5058;SDS011;2548;52.050;11.036;2023-01-30T04:11:47;11.45;;;9.30;;
5058;SDS011;2548;52.050;11.036;2023-01-30T04:14:15;11.07;;;8.65;;
5058;SDS011;2548;52.050;11.036;2023-01-30T04:17:01;9.70;;;8.23;;
5058;SDS011;2548;52.050;11.036;2023-01-30T04:19:45;14.35;;;9.75;;
5058;SDS011;2548;52.050;11.036;2023-01-30T04:22:13;12.63;;;10.15;;
5058;SDS011;2548;52.050;11.036;2023-01-30T04:24:40;15.10;;;10.02;;
5058;SDS011;2548;52.050;11.036;2023-01-30T04:27:09;15.18;;;10.65;;
5058;SDS011;2548;52.050;11.036;2023-01-30T04:29:44;13.07;;;9.13;;
5058;SDS011;2548;52.050;11.036;2023-01-30T04:32:12;14.20;;;10.00;;
5058;SDS011;2548;52.050;11.036;2023-01-30T04:34:39;15.38;;;10.38;;
5058;SDS011;2548;52.050;11.036;2023-01-30T04:37:08;10.40;;;8.35;;
5058;SDS011;2548;52.050;11.036;2023-01-30T04:39:36;13.68;;;8.82;;
5058;SDS011;2548;52.050;11.036;2023-01-30T04:42:03;13.48;;;10.32;;
5058;SDS011;2548;52.050;11.036;2023-01-30T04:44:39;11.73;;;8.27;;
5058;SDS011;2548;52.050;11.036;2023-01-30T04:47:15;13.93;;;9.10;;
5058;SDS011;2548;52.050;11.036;2023-01-30T04:49:43;14.27;;;9.25;;
5058;SDS011;2548;52.050;11.036;2023-01-30T04:52:12;13.55;;;8.75;;
5058;SDS011;2548;52.050;11.036;2023-01-30T04:54:40;11.43;;;8.68;;
5058;SDS011;2548;52.050;11.036;2023-01-30T04:57:07;12.85;;;8.60;;
5058;SDS011;2548;52.050;11.036;2023-01-30T04:59:35;11.48;;;8.50;;
5058;SDS011;2548;52.050;11.036;2023-01-30T05:02:06;11.05;;;9.73;;
5058;SDS011;2548;52.050;11.036;2023-01-30T05:04:34;9.88;;;7.93;;
5058;SDS011;2548;52.050;11.036;2023-01-30T05:07:01;11.68;;;7.68;;
5058;SDS011;2548;52.050;11.036;2023-01-30T05:09:29;10.07;;;7.57;;
5058;SDS011;2548;52.050;11.036;2023-01-30T05:11:56;9.02;;;7.38;;
5058;SDS011;2548;52.050;11.036;2023-01-30T05:14:24;11.75;;;7.65;;
5058;SDS011;2548;52.050;11.036;2023-01-30T05:16:51;8.20;;;6.70;;
5058;SDS011;2548;52.050;11.036;2023-01-30T05:19:20;7.65;;;6.60;;
5058;SDS011;2548;52.050;11.036;2023-01-30T05:21:47;8.15;;;6.47;;
5058;SDS011;2548;52.050;11.036;2023-01-30T05:24:15;6.32;;;5.68;;
5058;SDS011;2548;52.050;11.036;2023-01-30T05:26:44;6.05;;;5.45;;
5058;SDS011;2548;52.050;11.036;2023-01-30T05:29:11;6.10;;;4.80;;
5058;SDS011;2548;52.050;11.036;2023-01-30T05:31:38;5.60;;;5.10;;
5058;SDS011;2548;52.050;11.036;2023-01-30T05:34:06;6.68;;;3.85;;
5058;SDS011;2548;52.050;11.036;2023-01-30T05:36:37;4.57;;;4.18;;
5058;SDS011;2548;52.050;11.036;2023-01-30T05:39:05;5.10;;;4.60;;
5058;SDS011;2548;52.050;11.036;2023-01-30T05:41:32;4.35;;;3.95;;
5058;SDS011;2548;52.050;11.036;2023-01-30T05:44:00;4.65;;;4.25;;
5058;SDS011;2548;52.050;11.036;2023-01-30T05:46:27;3.83;;;3.47;;
5058;SDS011;2548;52.050;11.036;2023-01-30T05:48:55;3.92;;;3.63;;
5058;SDS011;2548;52.050;11.036;2023-01-30T05:51:23;3.85;;;3.47;;
5058;SDS011;2548;52.050;11.036;2023-01-30T05:53:53;3.30;;;2.70;;
5058;SDS011;2548;52.050;11.036;2023-01-30T05:56:21;3.58;;;2.97;;
5058;SDS011;2548;52.050;11.036;2023-01-30T05:58:49;2.53;;;2.33;;
5058;SDS011;2548;52.050;11.036;2023-01-30T06:01:17;3.15;;;2.95;;
5058;SDS011;2548;52.050;11.036;2023-01-30T06:03:44;2.35;;;2.25;;
5058;SDS011;2548;52.050;11.036;2023-01-30T06:06:12;2.40;;;2.30;;
5058;SDS011;2548;52.050;11.036;2023-01-30T06:08:39;2.40;;;2.30;;
5058;SDS011;2548;52.050;11.036;2023-01-30T06:11:09;2.28;;;2.17;;
5058;SDS011;2548;52.050;11.036;2023-01-30T06:13:38;1.60;;;1.52;;
5058;SDS011;2548;52.050;11.036;2023-01-30T06:16:06;1.85;;;1.75;;
5058;SDS011;2548;52.050;11.036;2023-01-30T06:18:36;1.40;;;1.40;;
5058;SDS011;2548;52.050;11.036;2023-01-30T06:21:04;2.10;;;2.00;;
5058;SDS011;2548;52.050;11.036;2023-01-30T06:23:32;1.50;;;1.50;;
5058;SDS011;2548;52.050;11.036;2023-01-30T06:26:00;2.10;;;2.00;;
5058;SDS011;2548;52.050;11.036;2023-01-30T06:28:29;1.60;;;1.50;;
5058;SDS011;2548;52.050;11.036;2023-01-30T06:30:57;1.23;;;1.23;;
5058;SDS011;2548;52.050;11.036;2023-01-30T06:33:24;1.75;;;1.65;;
5058;SDS011;2548;52.050;11.036;2023-01-30T06:35:52;1.80;;;1.70;;
5058;SDS011;2548;52.050;11.036;2023-01-30T06:38:20;1.85;;;1.75;;
5058;SDS011;2548;52.050;11.036;2023-01-30T06:40:48;2.00;;;1.90;;
5058;SDS011;2548;52.050;11.036;2023-01-30T06:43:16;1.95;;;1.85;;
5058;SDS011;2548;52.050;11.036;2023-01-30T06:45:45;2.00;;;1.90;;
5058;SDS011;2548;52.050;11.036;2023-01-30T06:48:12;1.55;;;1.45;;
5058;SDS011;2548;52.050;11.036;2023-01-30T06:50:40;1.92;;;1.80;;
5058;SDS011;2548;52.050;11.036;2023-01-30T06:53:07;2.60;;;1.98;;
5058;SDS011;2548;52.050;11.036;2023-01-30T06:55:36;1.80;;;1.70;;
5058;SDS011;2548;52.050;11.036;2023-01-30T06:58:04;5.85;;;2.30;;
5058;SDS011;2548;52.050;11.036;2023-01-30T07:00:33;3.05;;;2.65;;
5058;SDS011;2548;52.050;11.036;2023-01-30T07:03:07;3.05;;;2.90;;
5058;SDS011;2548;52.050;11.036;2023-01-30T07:05:37;3.92;;;3.67;;
5058;SDS011;2548;52.050;11.036;2023-01-30T07:08:04;3.90;;;3.25;;
5058;SDS011;2548;52.050;11.036;2023-01-30T07:10:32;3.67;;;3.22;;
5058;SDS011;2548;52.050;11.036;2023-01-30T07:13:00;5.68;;;5.05;;
5058;SDS011;2548;52.050;11.036;2023-01-30T07:15:28;5.07;;;4.55;;
5058;SDS011;2548;52.050;11.036;2023-01-30T07:17:56;3.85;;;3.55;;
5058;SDS011;2548;52.050;11.036;2023-01-30T07:20:24;4.40;;;3.95;;
5058;SDS011;2548;52.050;11.036;2023-01-30T07:22:54;4.03;;;3.72;;
5058;SDS011;2548;52.050;11.036;2023-01-30T07:25:22;3.42;;;3.28;;
5058;SDS011;2548;52.050;11.036;2023-01-30T07:27:51;4.78;;;4.20;;
5058;SDS011;2548;52.050;11.036;2023-01-30T07:30:19;5.43;;;4.43;;
5058;SDS011;2548;52.050;11.036;2023-01-30T07:32:50;6.10;;;5.60;;
5058;SDS011;2548;52.050;11.036;2023-01-30T07:35:19;4.15;;;3.85;;
5058;SDS011;2548;52.050;11.036;2023-01-30T07:37:48;7.22;;;5.43;;
5058;SDS011;2548;52.050;11.036;2023-01-30T07:40:17;5.65;;;5.20;;
5058;SDS011;2548;52.050;11.036;2023-01-30T07:42:54;7.78;;;6.30;;
5058;SDS011;2548;52.050;11.036;2023-01-30T07:45:22;4.72;;;4.30;;
5058;SDS011;2548;52.050;11.036;2023-01-30T07:47:50;3.95;;;3.60;;
5058;SDS011;2548;52.050;11.036;2023-01-30T07:50:17;4.55;;;4.25;;
5058;SDS011;2548;52.050;11.036;2023-01-30T07:52:45;5.55;;;5.05;;
5058;SDS011;2548;52.050;11.036;2023-01-30T07:55:14;7.00;;;5.10;;
5058;SDS011;2548;52.050;11.036;2023-01-30T07:57:41;5.22;;;4.05;;
5058;SDS011;2548;52.050;11.036;2023-01-30T08:00:09;6.28;;;4.55;;
5058;SDS011;2548;52.050;11.036;2023-01-30T08:02:37;6.30;;;3.88;;
5058;SDS011;2548;52.050;11.036;2023-01-30T08:05:05;4.10;;;2.97;;
5058;SDS011;2548;52.050;11.036;2023-01-30T08:07:33;3.95;;;3.65;;
5058;SDS011;2548;52.050;11.036;2023-01-30T08:10:00;4.10;;;3.30;;
5058;SDS011;2548;52.050;11.036;2023-01-30T08:12:29;6.63;;;4.00;;
5058;SDS011;2548;52.050;11.036;2023-01-30T08:14:57;5.75;;;3.80;;
5058;SDS011;2548;52.050;11.036;2023-01-30T08:17:24;5.72;;;5.13;;
5058;SDS011;2548;52.050;11.036;2023-01-30T08:19:52;6.85;;;6.03;;
5058;SDS011;2548;52.050;11.036;2023-01-30T08:22:19;7.22;;;5.55;;
5058;SDS011;2548;52.050;11.036;2023-01-30T08:24:47;6.30;;;4.70;;
5058;SDS011;2548;52.050;11.036;2023-01-30T08:27:14;6.82;;;4.90;;
5058;SDS011;2548;52.050;11.036;2023-01-30T08:29:43;13.88;;;9.98;;
5058;SDS011;2548;52.050;11.036;2023-01-30T08:32:11;7.05;;;6.35;;
5058;SDS011;2548;52.050;11.036;2023-01-30T08:34:38;4.40;;;4.10;;
5058;SDS011;2548;52.050;11.036;2023-01-30T08:37:06;6.18;;;4.00;;
5058;SDS011;2548;52.050;11.036;2023-01-30T08:39:33;12.23;;;4.30;;
5058;SDS011;2548;52.050;11.036;2023-01-30T08:42:01;7.28;;;5.35;;
5058;SDS011;2548;52.050;11.036;2023-01-30T08:44:28;9.68;;;4.68;;
5058;SDS011;2548;52.050;11.036;2023-01-30T08:46:57;9.65;;;2.67;;
5058;SDS011;2548;52.050;11.036;2023-01-30T08:49:24;10.48;;;5.22;;
5058;SDS011;2548;52.050;11.036;2023-01-30T08:51:52;12.07;;;4.22;;
5058;SDS011;2548;52.050;11.036;2023-01-30T08:54:19;7.15;;;4.78;;
5058;SDS011;2548;52.050;11.036;2023-01-30T08:56:47;9.15;;;4.05;;
5058;SDS011;2548;52.050;11.036;2023-01-30T08:59:14;15.60;;;4.10;;
5058;SDS011;2548;52.050;11.036;2023-01-30T09:01:41;15.38;;;4.93;;
5058;SDS011;2548;52.050;11.036;2023-01-30T09:04:10;4.40;;;3.13;;
5058;SDS011;2548;52.050;11.036;2023-01-30T09:06:38;11.68;;;3.38;;
5058;SDS011;2548;52.050;11.036;2023-01-30T09:09:05;10.77;;;3.25;;
5058;SDS011;2548;52.050;11.036;2023-01-30T09:11:33;15.68;;;5.00;;
5058;SDS011;2548;52.050;11.036;2023-01-30T09:14:00;10.55;;;4.63;;
5058;SDS011;2548;52.050;11.036;2023-01-30T09:16:28;13.00;;;5.10;;
5058;SDS011;2548;52.050;11.036;2023-01-30T09:18:55;5.03;;;4.07;;
5058;SDS011;2548;52.050;11.036;2023-01-30T09:21:24;20.60;;;8.73;;
5058;SDS011;2548;52.050;11.036;2023-01-30T09:23:54;15.40;;;4.78;;
5058;SDS011;2548;52.050;11.036;2023-01-30T09:26:22;8.82;;;4.20;;
5058;SDS011;2548;52.050;11.036;2023-01-30T09:28:49;7.20;;;4.00;;
5058;SDS011;2548;52.050;11.036;2023-01-30T09:31:17;9.75;;;3.83;;
5058;SDS011;2548;52.050;11.036;2023-01-30T09:33:44;10.20;;;3.15;;
5058;SDS011;2548;52.050;11.036;2023-01-30T09:36:11;19.95;;;3.90;;
5058;SDS011;2548;52.050;11.036;2023-01-30T09:38:40;11.35;;;3.70;;
5058;SDS011;2548;52.050;11.036;2023-01-30T09:44:00;14.43;;;2.80;;
5058;SDS011;2548;52.050;11.036;2023-01-30T09:46:41;14.60;;;5.65;;
5058;SDS011;2548;52.050;11.036;2023-01-30T09:49:18;16.73;;;3.53;;
5058;SDS011;2548;52.050;11.036;2023-01-30T09:51:56;16.45;;;4.25;;
5058;SDS011;2548;52.050;11.036;2023-01-30T09:54:32;19.42;;;8.90;;
5058;SDS011;2548;52.050;11.036;2023-01-30T09:57:10;10.93;;;4.22;;
5058;SDS011;2548;52.050;11.036;2023-01-30T09:59:46;15.65;;;6.80;;
5058;SDS011;2548;52.050;11.036;2023-01-30T10:02:28;9.40;;;4.80;;
5058;SDS011;2548;52.050;11.036;2023-01-30T10:05:03;8.52;;;2.90;;
5058;SDS011;2548;52.050;11.036;2023-01-30T10:07:35;11.55;;;3.80;;
5058;SDS011;2548;52.050;11.036;2023-01-30T10:10:16;13.73;;;3.15;;
5058;SDS011;2548;52.050;11.036;2023-01-30T10:13:02;12.40;;;2.97;;
5058;SDS011;2548;52.050;11.036;2023-01-30T10:15:39;10.32;;;2.13;;
5058;SDS011;2548;52.050;11.036;2023-01-30T10:21:17;20.08;;;2.97;;
5058;SDS011;2548;52.050;11.036;2023-01-30T10:23:55;11.38;;;3.63;;
5058;SDS011;2548;52.050;11.036;2023-01-30T10:26:45;13.95;;;3.17;;
5058;SDS011;2548;52.050;11.036;2023-01-30T10:29:14;14.25;;;3.30;;
5058;SDS011;2548;52.050;11.036;2023-01-30T10:31:46;16.60;;;3.17;;
5058;SDS011;2548;52.050;11.036;2023-01-30T10:34:21;13.57;;;3.78;;
5058;SDS011;2548;52.050;11.036;2023-01-30T10:36:52;20.50;;;3.13;;
5058;SDS011;2548;52.050;11.036;2023-01-30T10:39:26;10.20;;;2.60;;
5058;SDS011;2548;52.050;11.036;2023-01-30T10:42:03;11.73;;;3.45;;
5058;SDS011;2548;52.050;11.036;2023-01-30T10:44:35;16.45;;;3.63;;
5058;SDS011;2548;52.050;11.036;2023-01-30T10:47:11;22.65;;;4.68;;
5058;SDS011;2548;52.050;11.036;2023-01-30T10:49:48;23.90;;;5.38;;
5058;SDS011;2548;52.050;11.036;2023-01-30T10:52:20;11.13;;;2.88;;
5058;SDS011;2548;52.050;11.036;2023-01-30T10:54:59;10.70;;;2.85;;
5058;SDS011;2548;52.050;11.036;2023-01-30T10:57:39;9.23;;;2.15;;
5058;SDS011;2548;52.050;11.036;2023-01-30T11:00:28;12.57;;;2.80;;
5058;SDS011;2548;52.050;11.036;2023-01-30T11:03:03;14.00;;;3.17;;
5058;SDS011;2548;52.050;11.036;2023-01-30T11:05:41;8.15;;;3.47;;
5058;SDS011;2548;52.050;11.036;2023-01-30T11:08:17;12.75;;;2.53;;
5058;SDS011;2548;52.050;11.036;2023-01-30T11:10:47;8.82;;;4.07;;
5058;SDS011;2548;52.050;11.036;2023-01-30T11:13:18;14.77;;;3.65;;
5058;SDS011;2548;52.050;11.036;2023-01-30T11:15:47;25.42;;;4.13;;
5058;SDS011;2548;52.050;11.036;2023-01-30T11:18:16;16.05;;;3.75;;
5058;SDS011;2548;52.050;11.036;2023-01-30T11:20:50;19.77;;;3.95;;
5058;SDS011;2548;52.050;11.036;2023-01-30T11:23:30;21.40;;;4.15;;
5058;SDS011;2548;52.050;11.036;2023-01-30T11:25:59;9.93;;;4.15;;
5058;SDS011;2548;52.050;11.036;2023-01-30T11:28:33;13.48;;;6.00;;
5058;SDS011;2548;52.050;11.036;2023-01-30T11:31:05;18.23;;;5.15;;
5058;SDS011;2548;52.050;11.036;2023-01-30T11:33:43;23.45;;;5.60;;
5058;SDS011;2548;52.050;11.036;2023-01-30T11:36:22;7.00;;;3.15;;
5058;SDS011;2548;52.050;11.036;2023-01-30T11:38:54;20.67;;;3.92;;
5058;SDS011;2548;52.050;11.036;2023-01-30T11:41:24;10.77;;;2.92;;
5058;SDS011;2548;52.050;11.036;2023-01-30T11:43:54;13.48;;;2.70;;
5058;SDS011;2548;52.050;11.036;2023-01-30T11:46:28;12.80;;;3.80;;
5058;SDS011;2548;52.050;11.036;2023-01-30T11:48:59;8.55;;;4.03;;
5058;SDS011;2548;52.050;11.036;2023-01-30T11:51:29;23.23;;;5.45;;
5058;SDS011;2548;52.050;11.036;2023-01-30T11:54:00;14.45;;;4.75;;
5058;SDS011;2548;52.050;11.036;2023-01-30T11:56:31;16.52;;;6.43;;
5058;SDS011;2548;52.050;11.036;2023-01-30T11:59:03;13.95;;;3.65;;
5058;SDS011;2548;52.050;11.036;2023-01-30T12:01:33;11.82;;;3.63;;
5058;SDS011;2548;52.050;11.036;2023-01-30T12:04:04;13.15;;;4.45;;
5058;SDS011;2548;52.050;11.036;2023-01-30T12:06:34;13.35;;;4.25;;
5058;SDS011;2548;52.050;11.036;2023-01-30T12:09:04;17.83;;;4.82;;
5058;SDS011;2548;52.050;11.036;2023-01-30T12:11:40;13.10;;;5.30;;
5058;SDS011;2548;52.050;11.036;2023-01-30T12:14:24;15.65;;;4.45;;
5058;SDS011;2548;52.050;11.036;2023-01-30T12:17:03;12.27;;;3.20;;
5058;SDS011;2548;52.050;11.036;2023-01-30T12:19:41;12.40;;;3.90;;
5058;SDS011;2548;52.050;11.036;2023-01-30T12:22:17;17.40;;;6.20;;
5058;SDS011;2548;52.050;11.036;2023-01-30T12:24:51;15.60;;;3.20;;
5058;SDS011;2548;52.050;11.036;2023-01-30T12:27:27;14.23;;;2.78;;
5058;SDS011;2548;52.050;11.036;2023-01-30T12:30:05;17.48;;;2.85;;
5058;SDS011;2548;52.050;11.036;2023-01-30T12:32:45;13.30;;;3.95;;
5058;SDS011;2548;52.050;11.036;2023-01-30T12:35:13;21.42;;;3.55;;
5058;SDS011;2548;52.050;11.036;2023-01-30T12:37:49;5.45;;;2.47;;
5058;SDS011;2548;52.050;11.036;2023-01-30T12:40:29;15.05;;;3.10;;
5058;SDS011;2548;52.050;11.036;2023-01-30T12:43:17;13.90;;;3.00;;
5058;SDS011;2548;52.050;11.036;2023-01-30T12:46:06;13.85;;;3.58;;
5058;SDS011;2548;52.050;11.036;2023-01-30T12:48:50;13.10;;;3.25;;
5058;SDS011;2548;52.050;11.036;2023-01-30T12:51:43;10.90;;;2.72;;
5058;SDS011;2548;52.050;11.036;2023-01-30T12:54:30;6.82;;;3.47;;
5058;SDS011;2548;52.050;11.036;2023-01-30T12:57:11;15.25;;;3.33;;
5058;SDS011;2548;52.050;11.036;2023-01-30T12:59:50;6.10;;;2.55;;
5058;SDS011;2548;52.050;11.036;2023-01-30T13:05:25;19.35;;;4.93;;
5058;SDS011;2548;52.050;11.036;2023-01-30T13:08:10;21.95;;;5.65;;
5058;SDS011;2548;52.050;11.036;2023-01-30T13:10:48;29.02;;;4.53;;
5058;SDS011;2548;52.050;11.036;2023-01-30T13:13:22;15.93;;;5.78;;
5058;SDS011;2548;52.050;11.036;2023-01-30T13:15:56;31.67;;;4.82;;
5058;SDS011;2548;52.050;11.036;2023-01-30T13:18:35;21.90;;;5.10;;
5058;SDS011;2548;52.050;11.036;2023-01-30T13:21:09;10.80;;;3.17;;
5058;SDS011;2548;52.050;11.036;2023-01-30T13:23:47;9.27;;;2.38;;
5058;SDS011;2548;52.050;11.036;2023-01-30T13:26:26;5.15;;;2.40;;
5058;SDS011;2548;52.050;11.036;2023-01-30T13:28:59;1.83;;;1.73;;
5058;SDS011;2548;52.050;11.036;2023-01-30T13:31:30;4.60;;;1.20;;
5058;SDS011;2548;52.050;11.036;2023-01-30T13:34:04;2.40;;;1.20;;
5058;SDS011;2548;52.050;11.036;2023-01-30T13:36:38;3.80;;;1.60;;
5058;SDS011;2548;52.050;11.036;2023-01-30T13:39:11;10.52;;;1.77;;
5058;SDS011;2548;52.050;11.036;2023-01-30T13:41:42;10.35;;;3.15;;
5058;SDS011;2548;52.050;11.036;2023-01-30T13:44:16;4.18;;;1.85;;
5058;SDS011;2548;52.050;11.036;2023-01-30T13:46:47;4.63;;;1.85;;
5058;SDS011;2548;52.050;11.036;2023-01-30T13:49:18;5.35;;;2.65;;
5058;SDS011;2548;52.050;11.036;2023-01-30T13:51:52;12.68;;;1.90;;
5058;SDS011;2548;52.050;11.036;2023-01-30T13:54:27;4.60;;;2.20;;
5058;SDS011;2548;52.050;11.036;2023-01-30T13:57:14;4.05;;;2.47;;
5058;SDS011;2548;52.050;11.036;2023-01-30T13:59:56;10.95;;;2.65;;
5058;SDS011;2548;52.050;11.036;2023-01-30T14:08:52;11.10;;;2.67;;
5058;SDS011;2548;52.050;11.036;2023-01-30T14:11:28;21.63;;;2.90;;
5058;SDS011;2548;52.050;11.036;2023-01-30T14:14:00;8.02;;;2.58;;
5058;SDS011;2548;52.050;11.036;2023-01-30T14:16:42;4.95;;;2.42;;
5058;SDS011;2548;52.050;11.036;2023-01-30T14:22:17;12.85;;;3.85;;
5058;SDS011;2548;52.050;11.036;2023-01-30T14:37:52;10.88;;;3.70;;
5058;SDS011;2548;52.050;11.036;2023-01-30T14:40:42;16.95;;;4.85;;
5058;SDS011;2548;52.050;11.036;2023-01-30T14:43:33;11.27;;;3.67;;
5058;SDS011;2548;52.050;11.036;2023-01-30T14:46:03;20.27;;;3.92;;
5058;SDS011;2548;52.050;11.036;2023-01-30T14:48:33;19.45;;;4.53;;
5058;SDS011;2548;52.050;11.036;2023-01-30T14:51:09;24.30;;;5.15;;
5058;SDS011;2548;52.050;11.036;2023-01-30T14:53:55;18.27;;;4.90;;
5058;SDS011;2548;52.050;11.036;2023-01-30T14:56:35;19.63;;;4.60;;
5058;SDS011;2548;52.050;11.036;2023-01-30T14:59:08;22.77;;;5.95;;
5058;SDS011;2548;52.050;11.036;2023-01-30T15:04:48;14.98;;;4.07;;
5058;SDS011;2548;52.050;11.036;2023-01-30T15:07:21;15.75;;;4.88;;
5058;SDS011;2548;52.050;11.036;2023-01-30T15:09:54;14.63;;;3.80;;
5058;SDS011;2548;52.050;11.036;2023-01-30T15:12:29;21.08;;;4.00;;
5058;SDS011;2548;52.050;11.036;2023-01-30T15:15:13;18.27;;;4.80;;
5058;SDS011;2548;52.050;11.036;2023-01-30T15:17:51;15.27;;;4.03;;
5058;SDS011;2548;52.050;11.036;2023-01-30T15:20:32;14.07;;;4.07;;
5058;SDS011;2548;52.050;11.036;2023-01-30T15:23:21;14.80;;;3.63;;
5058;SDS011;2548;52.050;11.036;2023-01-30T15:26:14;15.55;;;4.57;;
5058;SDS011;2548;52.050;11.036;2023-01-30T15:28:52;19.92;;;3.53;;
5058;SDS011;2548;52.050;11.036;2023-01-30T15:31:31;11.95;;;2.60;;
5058;SDS011;2548;52.050;11.036;2023-01-30T15:33:59;8.40;;;2.80;;
5058;SDS011;2548;52.050;11.036;2023-01-30T15:36:27;15.68;;;3.55;;
5058;SDS011;2548;52.050;11.036;2023-01-30T15:39:00;14.95;;;2.50;;
5058;SDS011;2548;52.050;11.036;2023-01-30T15:41:30;10.00;;;2.60;;
5058;SDS011;2548;52.050;11.036;2023-01-30T15:44:09;15.35;;;4.45;;
5058;SDS011;2548;52.050;11.036;2023-01-30T15:47:02;18.65;;;4.72;;
5058;SDS011;2548;52.050;11.036;2023-01-30T15:49:59;6.45;;;2.55;;
5058;SDS011;2548;52.050;11.036;2023-01-30T15:52:33;12.00;;;3.72;;